createdAt,value
2019-01-11T00:00:58.126Z,100369.00
2019-01-11T00:03:27.486Z,100358.00
2019-01-11T00:05:56.598Z,100357.00
2019-01-11T00:08:25.734Z,100349.00
2019-01-11T00:10:55.138Z,100349.00
2019-01-11T00:13:24.500Z,100352.00
2019-01-11T00:15:53.579Z,100357.00
2019-01-11T00:18:22.688Z,100359.00
2019-01-11T00:21:04.202Z,100359.00
2019-01-11T00:23:33.571Z,100356.00
2019-01-11T00:26:02.659Z,100355.00
2019-01-11T00:28:32.024Z,100348.00
2019-01-11T00:31:01.106Z,100349.00
2019-01-11T00:33:30.501Z,100346.00
2019-01-11T00:35:59.827Z,100347.00
2019-01-11T00:38:28.949Z,100343.00
2019-01-11T00:40:58.053Z,100343.00
2019-01-11T00:43:27.160Z,100340.00
2019-01-11T00:45:56.501Z,100326.00
2019-01-11T00:48:25.633Z,100321.00
2019-01-11T00:50:54.712Z,100318.00
2019-01-11T00:53:24.081Z,100322.00
2019-01-11T00:55:53.170Z,100315.00
2019-01-11T00:58:22.541Z,100316.00
2019-01-11T01:00:52.162Z,100314.00
2019-01-11T01:03:21.588Z,100317.00
2019-01-11T01:05:50.961Z,100318.00
2019-01-11T01:08:20.292Z,100312.00
2019-01-11T01:10:49.384Z,100311.00
2019-01-11T01:13:18.761Z,100308.00
2019-01-11T01:15:47.860Z,100312.00
2019-01-11T01:18:17.208Z,100311.00
2019-01-11T01:20:46.297Z,100322.00
2019-01-11T01:23:15.418Z,100318.00
2019-01-11T01:25:44.545Z,100311.00
2019-01-11T01:28:13.911Z,100310.00
2019-01-11T01:30:43.282Z,100304.00
2019-01-11T01:33:12.398Z,100306.00
2019-01-11T01:35:41.483Z,100300.00
2019-01-11T01:38:10.569Z,100296.00
2019-01-11T01:40:39.943Z,100305.00
2019-01-11T01:43:09.290Z,100307.00
2019-01-11T01:45:38.725Z,100306.00
2019-01-11T01:48:08.244Z,100310.00
2019-01-11T01:50:37.612Z,100309.00
2019-01-11T01:53:06.699Z,100308.00
2019-01-11T01:55:35.824Z,100300.00
2019-01-11T01:58:05.281Z,100297.00
2019-01-11T02:00:34.388Z,100291.00
2019-01-11T02:03:03.920Z,100298.00
2019-01-11T02:05:33.001Z,100300.00
2019-01-11T02:08:02.371Z,100291.00
2019-01-11T02:10:31.739Z,100290.00
2019-01-11T02:13:00.841Z,100295.00
2019-01-11T02:15:30.261Z,100290.00
2019-01-11T02:17:59.339Z,100290.00
2019-01-11T02:20:28.713Z,100296.00
2019-01-11T02:22:58.080Z,100292.00
2019-01-11T02:25:27.211Z,100296.00
2019-01-11T02:27:56.573Z,100282.00
2019-01-11T02:30:25.731Z,100294.00
2019-01-11T02:32:54.824Z,100289.00
2019-01-11T02:35:23.945Z,100292.00
2019-01-11T02:37:53.340Z,100292.00
2019-01-11T02:40:22.709Z,100291.00
2019-01-11T02:42:51.806Z,100288.00
2019-01-11T02:45:21.317Z,100279.00
2019-01-11T02:47:50.695Z,100282.00
2019-01-11T02:50:19.813Z,100277.00
2019-01-11T02:52:49.152Z,100268.00
2019-01-11T02:55:18.274Z,100263.00
2019-01-11T02:57:47.626Z,100264.00
2019-01-11T03:00:21.177Z,100265.00
2019-01-11T03:02:50.353Z,100261.00
2019-01-11T03:05:20.084Z,100265.00
2019-01-11T03:07:49.502Z,100253.00
2019-01-11T03:10:20.222Z,100253.00
2019-01-11T03:12:49.346Z,100253.00
2019-01-11T03:15:18.740Z,100252.00
2019-01-11T03:17:47.856Z,100245.00
2019-01-11T03:20:18.398Z,100239.00
2019-01-11T03:22:47.744Z,100248.00
2019-01-11T03:25:17.103Z,100249.00
2019-01-11T03:27:46.475Z,100229.00
2019-01-11T03:30:22.048Z,100235.00
2019-01-11T03:32:51.179Z,100231.00
2019-01-11T03:35:20.588Z,100222.00
2019-01-11T03:37:50.048Z,100220.00
2019-01-11T03:40:21.355Z,100217.00
2019-01-11T03:42:50.778Z,100213.00
2019-01-11T03:45:21.316Z,100213.00
2019-01-11T03:47:50.771Z,100210.00
2019-01-11T03:50:20.449Z,100216.00
2019-01-11T03:52:49.685Z,100212.00
2019-01-11T03:55:19.073Z,100211.00
2019-01-11T03:57:48.727Z,100208.00
2019-01-11T04:00:20.155Z,100209.00
2019-01-11T04:02:49.281Z,100200.00
2019-01-11T04:05:18.711Z,100198.00
2019-01-11T04:07:47.874Z,100199.00
2019-01-11T04:10:21.961Z,100196.00
2019-01-11T04:12:51.056Z,100190.00
2019-01-11T04:15:21.676Z,100188.00
2019-01-11T04:17:52.746Z,100187.00
2019-01-11T04:20:21.843Z,100177.00
2019-01-11T04:22:52.861Z,100182.00
2019-01-11T04:25:23.582Z,100175.00
2019-01-11T04:27:53.107Z,100174.00
2019-01-11T04:30:22.253Z,100168.00
2019-01-11T04:32:51.707Z,100167.00
2019-01-11T04:35:21.311Z,100169.00
2019-01-11T04:37:50.395Z,100157.00
2019-01-11T04:40:20.081Z,100166.00
2019-01-11T04:42:49.198Z,100147.00
2019-01-11T04:45:18.566Z,100153.00
2019-01-11T04:47:47.666Z,100151.00
2019-01-11T04:50:18.131Z,100151.00
2019-01-11T04:52:47.693Z,100155.00
2019-01-11T04:55:16.856Z,100147.00
2019-01-11T04:57:46.237Z,100142.00
2019-01-11T05:00:17.861Z,100139.00
2019-01-11T05:02:46.986Z,100134.00
2019-01-11T05:05:16.596Z,100124.00
2019-01-11T05:07:45.966Z,100137.00
2019-01-11T05:10:17.349Z,100128.00
2019-01-11T05:12:46.740Z,100125.00
2019-01-11T05:15:16.455Z,100127.00
2019-01-11T05:17:45.547Z,100126.00
2019-01-11T05:20:17.215Z,100125.00
2019-01-11T05:22:46.966Z,100121.00
2019-01-11T05:25:16.545Z,100112.00
2019-01-11T05:27:45.632Z,100114.00
2019-01-11T05:30:17.007Z,100113.00
2019-01-11T05:32:46.370Z,100110.00
2019-01-11T05:35:15.503Z,100111.00
2019-01-11T05:37:44.907Z,100105.00
2019-01-11T05:40:17.973Z,100109.00
2019-01-11T05:42:47.081Z,100097.00
2019-01-11T05:45:17.744Z,100095.00
2019-01-11T05:47:47.139Z,100081.00
2019-01-11T05:50:23.819Z,100079.00
2019-01-11T05:52:48.484Z,100073.00
2019-01-11T05:55:19.487Z,100070.00
2019-01-11T05:58:06.879Z,100069.00
2019-01-11T06:00:35.995Z,100074.00
2019-01-11T06:03:05.414Z,100062.00
2019-01-11T06:05:34.941Z,100067.00
2019-01-11T06:08:05.716Z,100060.00
2019-01-11T06:10:35.092Z,100056.00
2019-01-11T06:13:04.188Z,100049.00
2019-01-11T06:15:33.541Z,100052.00
2019-01-11T06:18:02.649Z,100048.00
2019-01-11T06:20:32.041Z,100046.00
2019-01-11T06:23:01.451Z,100038.00
2019-01-11T06:25:30.551Z,100042.00
2019-01-11T06:27:59.944Z,100043.00
2019-01-11T06:30:29.100Z,100038.00
2019-01-11T06:32:58.221Z,100028.00
2019-01-11T06:35:27.594Z,100028.00
2019-01-11T06:37:57.084Z,100030.00
2019-01-11T06:40:26.462Z,100030.00
2019-01-11T06:42:55.896Z,100025.00
2019-01-11T06:45:25.031Z,100027.00
2019-01-11T06:47:54.393Z,100031.00
2019-01-11T06:50:23.737Z,100022.00
2019-01-11T06:52:52.829Z,100025.00
2019-01-11T06:55:21.957Z,100019.00
2019-01-11T06:57:51.334Z,100030.00
2019-01-11T07:00:20.478Z,100022.00
2019-01-11T07:02:49.613Z,100024.00
2019-01-11T07:05:18.996Z,100025.00
2019-01-11T07:07:48.339Z,100019.00
2019-01-11T07:10:20.641Z,100024.00
2019-01-11T07:12:49.842Z,100014.00
2019-01-11T07:15:19.265Z,100022.00
2019-01-11T07:17:48.941Z,100025.00
2019-01-11T07:20:18.032Z,100019.00
2019-01-11T07:22:47.413Z,100017.00
2019-01-11T07:25:16.673Z,100020.00
2019-01-11T07:27:53.595Z,100032.00
2019-01-11T07:30:24.656Z,100019.00
2019-01-11T07:32:54.030Z,100018.00
2019-01-11T07:35:25.052Z,100006.00
2019-01-11T07:37:54.144Z,100003.00
2019-01-11T07:40:23.749Z,100010.00
2019-01-11T07:42:53.133Z,100005.00
2019-01-11T07:45:22.232Z,100009.00
2019-01-11T07:47:51.358Z,100007.00
2019-01-11T07:50:20.504Z,100007.00
2019-01-11T07:52:49.880Z,100001.00
2019-01-11T07:55:18.981Z,99993.00
2019-01-11T07:57:48.358Z,100000.00
2019-01-11T08:00:17.773Z,99996.00
2019-01-11T08:02:47.386Z,99996.00
2019-01-11T08:05:16.755Z,99997.00
2019-01-11T08:07:46.098Z,99993.00
2019-01-11T08:10:15.466Z,99987.00
2019-01-11T08:12:44.549Z,99983.00
2019-01-11T08:15:17.729Z,99973.00
2019-01-11T08:17:46.849Z,99969.00
2019-01-11T08:20:15.974Z,99968.00
2019-01-11T08:22:45.064Z,99968.00
2019-01-11T08:25:15.756Z,99971.00
2019-01-11T08:27:45.169Z,99965.00
2019-01-11T08:30:16.973Z,99960.00
2019-01-11T08:32:46.313Z,99959.00
2019-01-11T08:35:15.756Z,99956.00
2019-01-11T08:37:45.702Z,99954.00
2019-01-11T08:40:14.814Z,99957.00
2019-01-11T08:42:43.982Z,99946.00
2019-01-11T08:45:15.195Z,99943.00
2019-01-11T08:47:44.292Z,99943.00
2019-01-11T08:50:18.415Z,99950.00
2019-01-11T08:52:48.061Z,99950.00
2019-01-11T08:55:17.269Z,99938.00
2019-01-11T08:57:46.385Z,99933.00
2019-01-11T09:00:17.322Z,99942.00
2019-01-11T09:02:46.431Z,99950.00
2019-01-11T09:05:15.798Z,99938.00
2019-01-11T09:07:45.137Z,99941.00
2019-01-11T09:10:22.458Z,99945.00
2019-01-11T09:12:47.958Z,99944.00
2019-01-11T09:15:17.423Z,99949.00
2019-01-11T09:17:59.952Z,99955.00
2019-01-11T09:20:29.078Z,99952.00
2019-01-11T09:22:58.450Z,99949.00
2019-01-11T09:25:27.817Z,99949.00
2019-01-11T09:27:56.912Z,99952.00
2019-01-11T09:30:26.304Z,99961.00
2019-01-11T09:32:55.646Z,99953.00
2019-01-11T09:35:25.565Z,99960.00
2019-01-11T09:37:54.652Z,99968.00
2019-01-11T09:40:24.025Z,99957.00
2019-01-11T09:42:53.105Z,99946.00
2019-01-11T09:45:22.508Z,99945.00
2019-01-11T09:47:51.626Z,99948.00
2019-01-11T09:50:21.019Z,99947.00
2019-01-11T09:52:50.113Z,99947.00
2019-01-11T09:55:19.237Z,99951.00
2019-01-11T09:57:48.584Z,99948.00
2019-01-11T10:00:20.709Z,99944.00
2019-01-11T10:02:51.701Z,99933.00
2019-01-11T10:05:21.213Z,99931.00
2019-01-11T10:07:50.554Z,99942.00
2019-01-11T10:10:19.642Z,99936.00
2019-01-11T10:12:49.088Z,99933.00
2019-01-11T10:15:18.246Z,99928.00
2019-01-11T10:17:49.239Z,99925.00
2019-01-11T10:20:18.329Z,99919.00
2019-01-11T10:22:48.585Z,99920.00
2019-01-11T10:25:17.728Z,99907.00
2019-01-11T10:27:47.080Z,99906.00
2019-01-11T10:30:22.204Z,99905.00
2019-01-11T10:32:51.995Z,99902.00
2019-01-11T10:35:21.426Z,99894.00
2019-01-11T10:37:50.795Z,99891.00
2019-01-11T10:40:20.313Z,99888.00
2019-01-11T10:42:49.880Z,99889.00
2019-01-11T10:45:20.846Z,99887.00
2019-01-11T10:47:51.856Z,99878.00
2019-01-11T10:50:20.948Z,99886.00
2019-01-11T10:52:50.045Z,99879.00
2019-01-11T10:55:19.524Z,99874.00
2019-01-11T10:57:48.655Z,99880.00
2019-01-11T11:00:21.140Z,99874.00
2019-01-11T11:02:51.692Z,99864.00
2019-01-11T11:05:20.948Z,99858.00
2019-01-11T11:07:50.296Z,99855.00
2019-01-11T11:10:19.833Z,99841.00
2019-01-11T11:12:48.963Z,99845.00
2019-01-11T11:15:19.505Z,99845.00
2019-01-11T11:17:49.108Z,99847.00
2019-01-11T11:20:18.930Z,99834.00
2019-01-11T11:22:48.338Z,99824.00
2019-01-11T11:25:19.194Z,99817.00
2019-01-11T11:27:48.382Z,99808.00
2019-01-11T11:30:18.676Z,99793.00
2019-01-11T11:32:49.718Z,99794.00
2019-01-11T11:35:19.054Z,99788.00
2019-01-11T11:37:48.441Z,99784.00
2019-01-11T11:40:17.939Z,99790.00
2019-01-11T11:42:47.042Z,99786.00
2019-01-11T11:45:16.431Z,99787.00
2019-01-11T11:47:45.528Z,99785.00
2019-01-11T11:50:14.955Z,99783.00
2019-01-11T11:52:44.081Z,99783.00
2019-01-11T11:55:13.435Z,99772.00
2019-01-11T11:57:42.532Z,99779.00
2019-01-11T12:00:14.890Z,99788.00
2019-01-11T12:02:44.034Z,99780.00
2019-01-11T12:05:13.502Z,99782.00
2019-01-11T12:07:42.861Z,99775.00
2019-01-11T12:10:14.192Z,99775.00
2019-01-11T12:12:43.372Z,99773.00
2019-01-11T12:15:13.997Z,99773.00
2019-01-11T12:17:43.433Z,99753.00
2019-01-11T12:20:15.680Z,99757.00
2019-01-11T12:22:44.819Z,99746.00
2019-01-11T12:25:13.907Z,99740.00
2019-01-11T12:27:43.306Z,99733.00
2019-01-11T12:30:14.632Z,99724.00
2019-01-11T12:32:44.024Z,99723.00
2019-01-11T12:35:13.821Z,99726.00
2019-01-11T12:37:42.924Z,99734.00
2019-01-11T12:40:15.179Z,99714.00
2019-01-11T12:42:44.530Z,99704.00
2019-01-11T12:45:16.268Z,99706.00
2019-01-11T12:47:45.368Z,99699.00
2019-01-11T12:50:23.263Z,99690.00
2019-01-11T12:52:52.664Z,99690.00
2019-01-11T12:55:21.770Z,99687.00
2019-01-11T12:57:51.181Z,99678.00
2019-01-11T13:00:20.649Z,99675.00
2019-01-11T13:02:49.978Z,99669.00
2019-01-11T13:05:20.717Z,99683.00
2019-01-11T13:07:49.897Z,99678.00
2019-01-11T13:10:20.007Z,99671.00
2019-01-11T13:12:49.370Z,99651.00
2019-01-11T13:15:20.516Z,99666.00
2019-01-11T13:17:49.600Z,99656.00
2019-01-11T13:20:20.813Z,99659.00
2019-01-11T13:22:50.024Z,99650.00
2019-01-11T13:25:19.150Z,99660.00
2019-01-11T13:27:48.232Z,99650.00
2019-01-11T13:30:19.092Z,99653.00
2019-01-11T13:32:48.319Z,99654.00
2019-01-11T13:35:17.750Z,99650.00
2019-01-11T13:37:46.857Z,99652.00
2019-01-11T13:40:19.145Z,99649.00
2019-01-11T13:42:48.263Z,99643.00
2019-01-11T13:45:17.601Z,99633.00
2019-01-11T13:47:46.786Z,99643.00
2019-01-11T13:50:33.655Z,99637.00
2019-01-11T13:53:02.804Z,99637.00
2019-01-11T13:55:32.185Z,99640.00
2019-01-11T13:58:01.518Z,99639.00
2019-01-11T14:00:30.604Z,99627.00
2019-01-11T14:02:59.969Z,99624.00
2019-01-11T14:05:29.335Z,99625.00
2019-01-11T14:07:58.703Z,99624.00
2019-01-11T14:10:28.038Z,99623.00
2019-01-11T14:12:57.142Z,99626.00
2019-01-11T14:15:26.242Z,99623.00
2019-01-11T14:17:55.357Z,99625.00
2019-01-11T14:20:24.700Z,99611.00
2019-01-11T14:22:53.779Z,99614.00
2019-01-11T14:25:22.902Z,99609.00
2019-01-11T14:27:52.277Z,99609.00
2019-01-11T14:30:21.354Z,99607.00
2019-01-11T14:32:50.856Z,99611.00
2019-01-11T14:35:20.553Z,99603.00
2019-01-11T14:37:49.661Z,99606.00
2019-01-11T14:40:19.025Z,99607.00
2019-01-11T14:42:48.761Z,99601.00
2019-01-11T14:45:18.336Z,99595.00
2019-01-11T14:47:47.419Z,99591.00
2019-01-11T14:50:19.561Z,99590.00
2019-01-11T14:52:49.035Z,99593.00
2019-01-11T14:55:18.144Z,99592.00
2019-01-11T14:57:47.525Z,99587.00
2019-01-11T15:00:22.667Z,99600.00
2019-01-11T15:02:51.995Z,99597.00
2019-01-11T15:05:21.898Z,99583.00
2019-01-11T15:07:51.228Z,99579.00
2019-01-11T15:10:20.336Z,99582.00
2019-01-11T15:12:49.924Z,99582.00
2019-01-11T15:15:19.285Z,99592.00
2019-01-11T15:17:48.378Z,99580.00
2019-01-11T15:20:18.812Z,99589.00
2019-01-11T15:22:48.309Z,99591.00
2019-01-11T15:25:17.407Z,99592.00
2019-01-11T15:27:46.574Z,99583.00
2019-01-11T15:30:18.479Z,99588.00
2019-01-11T15:32:47.628Z,99588.00
2019-01-11T15:35:17.072Z,99583.00
2019-01-11T15:37:47.088Z,99584.00
2019-01-11T15:40:21.581Z,99579.00
2019-01-11T15:42:50.678Z,99578.00
2019-01-11T15:45:19.788Z,99572.00
2019-01-11T15:47:48.905Z,99580.00
2019-01-11T15:50:47.000Z,99579.00
2019-01-11T15:53:16.117Z,99571.00
2019-01-11T15:55:45.253Z,99571.00
2019-01-11T15:58:14.590Z,99570.00
2019-01-11T16:00:48.632Z,99570.00
2019-01-11T16:03:18.242Z,99576.00
2019-01-11T16:05:47.382Z,99572.00
2019-01-11T16:08:16.828Z,99566.00
2019-01-11T16:11:07.417Z,99580.00
2019-01-11T16:13:39.992Z,99571.00
2019-01-11T16:16:11.674Z,99573.00
2019-01-11T16:18:41.050Z,99570.00
2019-01-11T16:21:10.430Z,99576.00
2019-01-11T16:23:39.539Z,99562.00
2019-01-11T16:26:08.897Z,99563.00
2019-01-11T16:28:38.012Z,99557.00
2019-01-11T16:31:07.722Z,99560.00
2019-01-11T16:33:37.058Z,99562.00
2019-01-11T16:36:06.172Z,99565.00
2019-01-11T16:38:35.288Z,99561.00
2019-01-11T16:41:04.770Z,99556.00
2019-01-11T16:43:33.885Z,99551.00
2019-01-11T16:46:03.245Z,99554.00
2019-01-11T16:48:32.369Z,99554.00
2019-01-11T16:51:01.457Z,99560.00
2019-01-11T16:53:30.594Z,99560.00
2019-01-11T16:55:59.966Z,99550.00
2019-01-11T16:58:29.058Z,99556.00
2019-01-11T17:00:58.174Z,99563.00
2019-01-11T17:03:27.525Z,99551.00
2019-01-11T17:05:56.972Z,99539.00
2019-01-11T17:08:26.715Z,99553.00
2019-01-11T17:10:55.890Z,99547.00
2019-01-11T17:13:24.976Z,99547.00
2019-01-11T17:15:54.101Z,99549.00
2019-01-11T17:18:23.196Z,99554.00
2019-01-11T17:20:52.591Z,99548.00
2019-01-11T17:23:21.716Z,99549.00
2019-01-11T17:25:51.078Z,99537.00
2019-01-11T17:28:20.424Z,99540.00
2019-01-11T17:30:49.531Z,99550.00
2019-01-11T17:33:18.658Z,99561.00
2019-01-11T17:35:47.737Z,99555.00
2019-01-11T17:38:17.126Z,99555.00
2019-01-11T17:40:46.788Z,99543.00
2019-01-11T17:43:15.878Z,99553.00
2019-01-11T17:45:45.002Z,99553.00
2019-01-11T17:48:14.166Z,99564.00
2019-01-11T17:50:43.512Z,99560.00
2019-01-11T17:53:12.859Z,99564.00
2019-01-11T17:55:42.020Z,99564.00
2019-01-11T17:58:11.564Z,99550.00
2019-01-11T18:00:42.771Z,99548.00
2019-01-11T18:03:11.905Z,99553.00
2019-01-11T18:05:41.265Z,99548.00
2019-01-11T18:08:10.400Z,99566.00
2019-01-11T18:10:39.760Z,99557.00
2019-01-11T18:13:09.150Z,99552.00
2019-01-11T18:15:38.259Z,99562.00
2019-01-11T18:18:07.398Z,99551.00
2019-01-11T18:20:36.482Z,99549.00
2019-01-11T18:23:07.097Z,99561.00
2019-01-11T18:25:36.504Z,99561.00
2019-01-11T18:28:05.914Z,99547.00
2019-01-11T18:30:35.278Z,99551.00
2019-01-11T18:33:04.558Z,99552.00
2019-01-11T18:35:33.897Z,99555.00
2019-01-11T18:38:03.083Z,99549.00
2019-01-11T18:40:32.870Z,99551.00
2019-01-11T18:43:02.090Z,99565.00
2019-01-11T18:45:31.408Z,99565.00
2019-01-11T18:48:00.794Z,99564.00
2019-01-11T18:50:29.885Z,99563.00
2019-01-11T18:52:59.007Z,99561.00
2019-01-11T18:55:28.101Z,99566.00
2019-01-11T18:57:57.217Z,99570.00
2019-01-11T19:00:26.872Z,99565.00
2019-01-11T19:02:56.224Z,99557.00
2019-01-11T19:05:25.320Z,99564.00
2019-01-11T19:07:54.687Z,99560.00
2019-01-11T19:10:23.780Z,99567.00
2019-01-11T19:12:53.135Z,99562.00
2019-01-11T19:15:26.697Z,99561.00
2019-01-11T19:17:55.778Z,99567.00
2019-01-11T19:20:27.767Z,99574.00
2019-01-11T19:22:57.176Z,99573.00
2019-01-11T19:25:26.301Z,99569.00
2019-01-11T19:27:55.641Z,99571.00
2019-01-11T19:30:27.137Z,99573.00
2019-01-11T19:32:56.249Z,99573.00
2019-01-11T19:35:25.390Z,99577.00
2019-01-11T19:37:54.699Z,99578.00
2019-01-11T19:40:23.788Z,99581.00
2019-01-11T19:42:53.235Z,99580.00
2019-01-11T19:45:22.581Z,99574.00
2019-01-11T19:47:51.679Z,99581.00
2019-01-11T19:50:23.361Z,99586.00
2019-01-11T19:52:52.470Z,99585.00
2019-01-11T19:55:21.946Z,99574.00
2019-01-11T19:57:51.042Z,99576.00
2019-01-11T20:00:26.463Z,99565.00
2019-01-11T20:02:56.073Z,99571.00
2019-01-11T20:05:25.455Z,99572.00
2019-01-11T20:07:54.531Z,99562.00
2019-01-11T20:10:30.164Z,99574.00
2019-01-11T20:12:59.296Z,99574.00
2019-01-11T20:15:28.758Z,99577.00
2019-01-11T20:17:57.922Z,99577.00
2019-01-11T20:20:27.046Z,99587.00
2019-01-11T20:23:02.114Z,99579.00
2019-01-11T20:25:26.974Z,99585.00
2019-01-11T20:27:56.375Z,99590.00
2019-01-11T20:30:26.159Z,99592.00
2019-01-11T20:32:55.338Z,99594.00
2019-01-11T20:35:24.992Z,99582.00
2019-01-11T20:37:54.163Z,99591.00
2019-01-11T20:40:23.294Z,99594.00
2019-01-11T20:42:52.397Z,99601.00
2019-01-11T20:45:21.890Z,99590.00
2019-01-11T20:47:51.426Z,99590.00
2019-01-11T20:50:22.615Z,99580.00
2019-01-11T20:52:51.950Z,99591.00
2019-01-11T20:55:21.417Z,99601.00
2019-01-11T20:57:50.582Z,99596.00
2019-01-11T21:00:30.317Z,99601.00
2019-01-11T21:02:59.798Z,99602.00
2019-01-11T21:05:29.513Z,99610.00
2019-01-11T21:07:58.859Z,99608.00
2019-01-11T21:10:27.941Z,99605.00
2019-01-11T21:12:57.037Z,99609.00
2019-01-11T21:15:26.234Z,99608.00
2019-01-11T21:17:55.418Z,99609.00
2019-01-11T21:20:24.539Z,99616.00
2019-01-11T21:22:53.673Z,99617.00
2019-01-11T21:25:23.105Z,99605.00
2019-01-11T21:27:52.210Z,99607.00
2019-01-11T21:30:23.662Z,99606.00
2019-01-11T21:32:52.954Z,99606.00
2019-01-11T21:35:22.817Z,99605.00
2019-01-11T21:37:52.251Z,99607.00
2019-01-11T21:40:21.597Z,99611.00
2019-01-11T21:42:51.290Z,99612.00
2019-01-11T21:45:20.544Z,99605.00
2019-01-11T21:47:49.980Z,99594.00
2019-01-11T21:50:21.295Z,99594.00
2019-01-11T21:52:51.078Z,99596.00
2019-01-11T21:55:20.494Z,99596.00
2019-01-11T21:57:49.994Z,99607.00
2019-01-11T22:00:22.140Z,99594.00
2019-01-11T22:02:51.250Z,99598.00
2019-01-11T22:05:20.725Z,99601.00
2019-01-11T22:07:49.795Z,99595.00
2019-01-11T22:10:19.229Z,99600.00
2019-01-11T22:12:48.591Z,99598.00
2019-01-11T22:15:21.229Z,99595.00
2019-01-11T22:17:50.662Z,99605.00
2019-01-11T22:20:19.837Z,99605.00
2019-01-11T22:22:48.961Z,99604.00
2019-01-11T22:25:18.919Z,99608.00
2019-01-11T22:27:48.005Z,99604.00
2019-01-11T22:30:19.264Z,99600.00
2019-01-11T22:32:49.070Z,99596.00
2019-01-11T22:35:18.532Z,99598.00
2019-01-11T22:37:47.755Z,99605.00
2019-01-11T22:40:22.717Z,99609.00
2019-01-11T22:42:54.166Z,99604.00
2019-01-11T22:45:23.591Z,99617.00
2019-01-11T22:47:52.781Z,99606.00
2019-01-11T22:50:21.864Z,99613.00
2019-01-11T22:52:52.424Z,99609.00
2019-01-11T22:55:21.930Z,99610.00
2019-01-11T22:57:51.273Z,99615.00
2019-01-11T23:00:54.396Z,99614.00
2019-01-11T23:03:31.569Z,99613.00
2019-01-11T23:06:09.185Z,99618.00
2019-01-11T23:08:37.551Z,99612.00
2019-01-11T23:11:31.740Z,99617.00
2019-01-11T23:14:00.842Z,99608.00
2019-01-11T23:16:32.890Z,99614.00
2019-01-11T23:19:02.002Z,99610.00
2019-01-11T23:21:31.110Z,99619.00
2019-01-11T23:24:00.461Z,99621.00
2019-01-11T23:26:29.554Z,99617.00
2019-01-11T23:28:58.912Z,99621.00
2019-01-11T23:31:28.247Z,99627.00
2019-01-11T23:33:57.345Z,99610.00
2019-01-11T23:36:26.682Z,99616.00
2019-01-11T23:38:55.785Z,99619.00
2019-01-11T23:41:25.131Z,99620.00
2019-01-11T23:43:54.478Z,99623.00
2019-01-11T23:46:23.555Z,99623.00
2019-01-11T23:48:53.045Z,99611.00
2019-01-11T23:51:22.116Z,99612.00
2019-01-11T23:53:51.220Z,99606.00
2019-01-11T23:56:20.341Z,99619.00
2019-01-11T23:58:49.441Z,99619.00
